Flight Track Log - Related Links

Times and Time Zones

All times are in EDT time to prevent confusion due to time zone crossing. See the N79SE flight status page for this flight to view local times or setup timezone preferences in your user account.

Time Position Orientation Groundspeed Altitude Reporting Facility
EDT Latitude Longitude Course Direction KTS MPH feet Rate Location/Type
Thu 04:11:30 PM 34.9978 -81.0569 317° Northwest 184 212 1,000  Level Atlanta Center
Thu 04:12:25 PM 35.0319 -81.0964 317° Northwest 213 245 2,500 1,755 Climbing Atlanta Center
Thu 04:13:16 PM 35.0400 -81.1747 277° West 275 316 4,100 3,189 Climbing Atlanta Center
Thu 04:14:16 PM 35.0486 -81.2658 277° West 268 308 8,400 3,850 Climbing Atlanta Center
Thu 04:15:16 PM 35.0608 -81.3464 281° West 293 337 11,800 2,900 Climbing Atlanta Center
Thu 04:16:16 PM 35.0314 -81.4439 250° West 290 334 14,200 2,400 Climbing Atlanta Center
Thu 04:17:16 PM 35.0044 -81.5486 253° West 318 366 16,600 1,950 Climbing Atlanta Center
Thu 04:18:16 PM 34.9753 -81.6508 251° West 341 392 18,100 1,800 Climbing Atlanta Center
Thu 04:19:16 PM 34.9419 -81.7711 251° West 359 413 20,200 2,050 Climbing Atlanta Center
Thu 04:20:16 PM 34.8939 -81.8761 241° Southwest 368 423 22,200 2,000 Climbing Atlanta Center
Thu 04:21:16 PM 34.8392 -81.9711 235° Southwest 363 418 24,200 2,000 Climbing Atlanta Center
Thu 04:22:16 PM 34.7844 -82.0711 236° Southwest 357 411 26,200 2,200 Climbing Atlanta Center
Thu 04:23:16 PM 34.7256 -82.1736 235° Southwest 351 404 28,600 1,400 Climbing Atlanta Center
Thu 04:24:16 PM 34.6706 -82.2683 235° Southwest 351 404 29,000 850 Climbing Atlanta Center
Thu 04:25:16 PM 34.6094 -82.3731 235° Southwest 358 412 30,300 1,150 Climbing Atlanta Center
Thu 04:26:16 PM 34.5522 -82.4750 236° Southwest 371 427 31,300 1,050 Climbing Atlanta Center
Thu 04:27:16 PM 34.4931 -82.5794 236° Southwest 376 433 32,400 1,050 Climbing Atlanta Center
Thu 04:28:16 PM 34.4275 -82.6839 233° Southwest 382 440 33,400 1,050 Climbing Atlanta Center
Thu 04:29:16 PM 34.3661 -82.7856 234° Southwest 387 445 34,500 1,050 Climbing Atlanta Center
Thu 04:30:16 PM 34.3106 -82.8894 237° Southwest 387 445 35,500 750 Climbing Atlanta Center
Thu 04:31:16 PM 34.2489 -82.9933 234° Southwest 381 438 36,000 250 Climbing Atlanta Center
Thu 04:32:16 PM 34.1914 -83.0919 235° Southwest 392 451 36,000  Level Atlanta Center
Thu 04:33:16 PM 34.1275 -83.2006 235° Southwest 406 467 36,000  Level Atlanta Center
Thu 04:34:16 PM 34.0592 -83.3117 233° Southwest 411 473 36,000  Level Atlanta Center
Thu 04:35:16 PM 33.9953 -83.4250 236° Southwest 411 473 36,000  Level Atlanta Center
Thu 04:36:16 PM 33.9289 -83.5381 235° Southwest 411 473 36,000  Level Atlanta Center
Thu 04:37:16 PM 33.8625 -83.6486 234° Southwest 411 473 36,000  Level Atlanta Center
Thu 04:38:16 PM 33.7939 -83.7714 236° Southwest 406 467 36,000 -150 Level Atlanta Center
Thu 04:39:16 PM 33.7294 -83.8889 237° Southwest 412 474 35,700 -400 Descending Atlanta Center
Thu 04:40:16 PM 33.6647 -84.0039 236° Southwest 424 488 35,200 -350 Descending Atlanta Center
Thu 04:41:16 PM 33.6000 -84.1236 237° Southwest 419 482 35,000 -200 Descending Atlanta Center
Thu 04:42:16 PM 33.5353 -84.2383 236° Southwest 419 482 34,800 -600 Descending Atlanta Center
Thu 04:43:16 PM 33.4703 -84.3550 236° Southwest 425 489 33,800 -850 Descending Atlanta Center
Thu 04:44:16 PM 33.4136 -84.4619 238° Southwest 425 489 33,100 -400 Descending Atlanta Center
Thu 04:45:16 PM 33.3486 -84.5783 236° Southwest 425 489 33,000 -150 Descending Atlanta Center
Thu 04:46:16 PM 33.2833 -84.6947 236° Southwest 425 489 32,800 -600 Descending Atlanta Center
Thu 04:47:16 PM 33.2178 -84.8136 237° Southwest 425 489 31,800 -1,050 Descending Atlanta Center
Thu 04:48:16 PM 33.1503 -84.9294 235° Southwest 425 489 30,700 -1,200 Descending Atlanta Center
Thu 04:49:16 PM 33.0783 -85.0603 237° Southwest 425 489 29,400 -1,500 Descending Atlanta Center
Thu 04:50:16 PM 33.0106 -85.1733 234° Southwest 431 496 27,700 -1,800 Descending Atlanta Center
Thu 04:51:16 PM 32.9406 -85.2914 235° Southwest 431 496 25,800 -1,900 Descending Atlanta Center
Thu 04:52:16 PM 32.8744 -85.4092 236° Southwest 436 502 23,900 -1,400 Descending Atlanta Center
Thu 04:53:16 PM 32.8064 -85.5267 235° Southwest 436 502 23,000 -1,200 Descending Atlanta Center
Thu 04:54:16 PM 32.7422 -85.6392 236° Southwest 431 496 21,500 -2,350 Descending Atlanta Center
Thu 04:55:16 PM 32.6783 -85.7467 235° Southwest 426 490 18,300 -3,350 Descending Atlanta Center
Thu 04:56:16 PM 32.6289 -85.8492 240° Southwest 396 456 14,800 -3,700 Descending Atlanta Center
Thu 04:57:16 PM 32.5833 -85.9494 242° Southwest 368 423 10,900 -3,300 Descending Atlanta Center
Thu 04:58:16 PM 32.5383 -86.0369 239° Southwest 338 389 8,200 -2,500 Descending Atlanta Center
Thu 04:59:16 PM 32.5036 -86.1103 241° Southwest 300 345 5,900 -2,300 Descending Atlanta Center
Thu 05:00:16 PM 32.4689 -86.1881 242° Southwest 285 328 3,600 -1,450 Descending Atlanta Center
Thu 05:01:16 PM 32.4300 -86.2658 239° Southwest 279 321 3,000 -750 Descending Atlanta Center
Thu 05:02:16 PM 32.3931 -86.3411 240° Southwest 279 321 2,100 -550 Descending Atlanta Center
Thu 05:03:16 PM 32.3583 -86.4142 241° Southwest 269 310 1,900 -200 Descending Atlanta Center
Thu 05:05:00 PM 32.3000 -86.3833 229° Southwest  Level FlightAware Approximate
Thu 05:12:00 PM 32.3006 -86.3940 229° Southwest  Level Estimated
Thu 05:13:00 PM 32.3006 -86.3940 229° Southwest  Level Estimated

Login

Don't have an account? Register now (free) for customized features, flight alerts, and more!